Time;durP1;ratioP1;P1;durP2;ratioP2;P2;SDS_P1;SDS_P2;PMS_P1;PMS_P2;Temp;Humidity;BMP_temperature;BMP_pressure;BME280_temperature;BME280_humidity;BME280_pressure;Samples;Min_cycle;Max_cycle;Signal;HPM_P1;HPM_P2
2021/05/03 00:00:31;;;;;;;6.55;4.93;;;;;;;13.68;58.24;99038.16;3510334;28;20135;-73
2021/05/03 00:02:12;;;;;;;6.30;5.68;;;;;;;13.67;58.09;99026.63;3510101;28;20039;-72
2021/05/03 00:03:53;;;;;;;5.85;5.25;;;;;;;13.66;58.49;99024.19;3510012;28;20047;-72
2021/05/03 00:05:34;;;;;;;7.20;5.88;;;;;;;13.66;58.35;99021.53;3509968;28;20043;-72
2021/05/03 00:07:15;;;;;;;7.60;5.53;;;;;;;13.67;58.50;99020.47;3510283;28;20063;-73
2021/05/03 00:08:56;;;;;;;7.93;5.20;;;;;;;13.66;58.65;99021.53;3510229;28;20121;-72
2021/05/03 00:10:36;;;;;;;8.98;5.40;;;;;;;13.64;58.82;99004.88;3509982;28;20077;-74
2021/05/03 00:12:17;;;;;;;6.50;5.85;;;;;;;13.61;58.98;99005.34;3509654;28;20043;-72
2021/05/03 00:13:58;;;;;;;7.22;5.25;;;;;;;13.60;59.21;98995.66;3509530;28;20048;-72
2021/05/03 00:15:39;;;;;;;6.68;5.18;;;;;;;13.58;59.05;98990.53;3510035;28;20068;-73
2021/05/03 00:17:21;;;;;;;6.43;4.45;;;;;;;13.58;59.36;98987.88;3510248;28;20044;-72
2021/05/03 00:19:02;;;;;;;5.78;5.03;;;;;;;13.60;59.35;98992.97;3510083;28;20048;-72
2021/05/03 00:20:44;;;;;;;9.02;5.40;;;;;;;13.59;59.46;98989.50;3509961;28;20040;-73
2021/05/03 00:22:25;;;;;;;5.15;4.63;;;;;;;13.56;59.57;98983.78;3512973;28;20040;-72
2021/05/03 00:24:06;;;;;;;5.85;5.35;;;;;;;13.48;59.75;98972.38;3512904;28;20135;-72
2021/05/03 00:25:46;;;;;;;6.60;5.30;;;;;;;13.45;60.05;98969.31;3512973;28;20058;-71
2021/05/03 00:27:27;;;;;;;7.80;5.43;;;;;;;13.44;60.01;98971.19;3513157;28;20044;-71
2021/05/03 00:29:08;;;;;;;6.72;5.80;;;;;;;13.32;59.99;98965.03;3511643;28;20579;-71
2021/05/03 00:30:49;;;;;;;7.18;5.25;;;;;;;13.40;60.02;98975.38;3512632;28;20505;-72
2021/05/03 00:32:30;;;;;;;6.07;5.10;;;;;;;13.36;60.24;98966.19;3512752;28;20547;-72
2021/05/03 00:34:11;;;;;;;7.50;5.45;;;;;;;13.38;60.36;98961.41;3512771;28;20036;-73
2021/05/03 00:35:51;;;;;;;6.50;4.50;;;;;;;13.28;60.56;98956.63;3512781;28;20513;-72
2021/05/03 00:37:32;;;;;;;7.47;4.78;;;;;;;13.27;60.81;98955.00;3512597;28;20075;-71
2021/05/03 00:39:13;;;;;;;6.78;5.10;;;;;;;13.25;60.79;98942.88;3512879;28;20043;-71
2021/05/03 00:40:53;;;;;;;6.10;5.50;;;;;;;13.26;60.97;98939.97;3512704;28;20257;-71
2021/05/03 00:42:34;;;;;;;6.50;4.90;;;;;;;13.23;61.09;98931.56;3512058;28;20130;-72
2021/05/03 00:44:15;;;;;;;5.85;5.35;;;;;;;13.20;61.19;98932.03;3512890;28;20054;-71
2021/05/03 00:45:56;;;;;;;5.22;4.47;;;;;;;13.13;61.23;98910.72;3512584;28;20043;-71
2021/05/03 00:47:37;;;;;;;6.53;5.05;;;;;;;13.13;61.45;98899.22;3512517;28;20040;-71
2021/05/03 00:49:18;;;;;;;5.32;4.75;;;;;;;13.15;61.40;98910.50;3511635;28;20043;-72
2021/05/03 00:50:59;;;;;;;5.22;4.72;;;;;;;13.14;61.53;98906.19;3512450;28;20043;-71
2021/05/03 00:52:40;;;;;;;10.50;6.03;;;;;;;13.16;61.71;98904.91;3512343;28;20059;-72
2021/05/03 00:54:21;;;;;;;6.88;5.10;;;;;;;13.19;61.89;98903.63;3512543;28;20490;-71
2021/05/03 00:56:02;;;;;;;5.57;5.03;;;;;;;13.23;61.71;98896.78;3512390;28;20043;-73
2021/05/03 00:57:43;;;;;;;4.95;4.30;;;;;;;13.23;61.66;98894.91;3512515;28;20118;-71
2021/05/03 00:59:23;;;;;;;5.00;4.60;;;;;;;13.26;61.52;98893.63;3511183;28;20040;-72
2021/05/03 01:01:04;;;;;;;4.63;4.22;;;;;;;13.24;61.63;98901.91;3512201;28;20567;-72
2021/05/03 01:02:45;;;;;;;5.55;4.72;;;;;;;13.21;61.71;98890.84;3512590;28;20051;-71
2021/05/03 01:04:26;;;;;;;5.38;4.88;;;;;;;13.24;61.86;98887.69;3512396;28;20486;-72
2021/05/03 01:06:07;;;;;;;6.68;4.53;;;;;;;13.23;61.84;98886.09;3511984;28;20075;-72
2021/05/03 01:07:48;;;;;;;6.18;5.13;;;;;;;13.19;62.11;98871.53;3512008;28;20040;-71
2021/05/03 01:09:29;;;;;;;5.63;4.60;;;;;;;13.14;62.29;98879.44;3512658;28;20043;-71
2021/05/03 01:11:09;;;;;;;4.82;4.25;;;;;;;13.07;62.68;98864.31;3512584;28;20117;-71
2021/05/03 01:12:52;;;;;;;5.63;4.78;;;;;;;13.07;62.62;98866.19;3512505;28;20040;-72
2021/05/03 01:14:33;;;;;;;5.72;4.57;;;;;;;13.06;62.93;98857.34;3512674;28;20040;-71
2021/05/03 01:16:13;;;;;;;6.10;4.53;;;;;;;13.04;62.80;98858.63;3511566;28;20476;-72
2021/05/03 01:17:58;;;;;;;6.90;5.40;;;;;;;13.06;62.86;98852.00;3512773;28;20055;-72
2021/05/03 01:19:39;;;;;;;5.15;4.65;;;;;;;13.09;62.76;98848.84;3512566;28;20244;-72
2021/05/03 01:21:27;;;;;;;5.68;4.38;;;;;;;13.17;62.87;98842.34;3512278;28;20526;-71
2021/05/03 01:23:08;;;;;;;6.53;5.05;;;;;;;13.17;62.46;98836.19;3512300;28;20032;-72
2021/05/03 01:24:48;;;;;;;5.05;4.55;;;;;;;13.16;62.64;98840.69;3512402;28;20047;-73
2021/05/03 01:26:29;;;;;;;5.68;4.47;;;;;;;13.18;62.90;98843.97;3511253;28;20134;-72
2021/05/03 01:28:10;;;;;;;4.93;4.32;;;;;;;13.14;62.83;98841.97;3512119;28;20116;-72
2021/05/03 01:29:50;;;;;;;6.53;4.68;;;;;;;13.08;63.19;98828.47;3512227;28;20040;-72
2021/05/03 01:31:31;;;;;;;4.40;4.00;;;;;;;13.07;63.45;98829.53;3512028;28;20131;-72
2021/05/03 01:33:14;;;;;;;5.13;4.63;;;;;;;13.12;63.43;98823.50;3511052;28;20047;-71
2021/05/03 01:34:56;;;;;;;4.93;4.43;;;;;;;13.13;63.25;98818.94;3511930;28;20448;-72
2021/05/03 01:36:38;;;;;;;5.22;4.50;;;;;;;13.06;63.16;98803.00;3510837;28;20044;-71
2021/05/03 01:38:18;;;;;;;6.45;5.18;;;;;;;13.10;63.18;98818.38;3512026;28;20105;-70
2021/05/03 01:39:59;;;;;;;4.60;4.15;;;;;;;13.09;63.40;98819.41;3511904;28;20126;-73
2021/05/03 01:41:40;;;;;;;6.13;4.90;;;;;;;13.09;63.45;98818.63;3511879;28;20047;-73
2021/05/03 01:43:24;;;;;;;5.53;5.00;;;;;;;13.07;63.42;98810.81;3510513;28;20028;-72
2021/05/03 01:45:06;;;;;;;5.63;5.03;;;;;;;13.12;63.39;98806.63;3511654;28;20399;-71
2021/05/03 01:46:47;;;;;;;5.50;4.95;;;;;;;13.08;63.51;98793.69;3510830;28;20035;-71
2021/05/03 01:48:30;;;;;;;5.40;4.35;;;;;;;13.05;63.82;98794.16;3511559;28;20044;-71
2021/05/03 01:50:11;;;;;;;4.68;4.28;;;;;;;13.06;63.89;98798.50;3511810;28;20123;-72
2021/05/03 01:51:52;;;;;;;4.63;4.22;;;;;;;13.09;63.60;98787.31;3510274;28;20418;-71
2021/05/03 01:53:33;;;;;;;4.67;4.27;;;;;;;13.10;63.55;98794.28;3511514;28;20033;-72
2021/05/03 01:55:14;;;;;;;7.47;4.57;;;;;;;13.09;63.66;98791.88;3511948;28;20044;-71
2021/05/03 01:56:55;;;;;;;4.78;4.10;;;;;;;13.05;63.87;98790.69;3512044;28;20043;-71
2021/05/03 01:58:42;;;;;;;5.65;4.43;;;;;;;13.01;64.10;98779.66;3511746;28;20040;-71
2021/05/03 02:00:23;;;;;;;4.95;3.92;;;;;;;13.01;63.84;98781.47;3511787;28;20491;-73
2021/05/03 02:02:04;;;;;;;5.25;4.75;;;;;;;13.03;63.68;98787.41;3511594;28;20051;-73
2021/05/03 02:03:45;;;;;;;5.47;4.43;;;;;;;13.06;63.78;98771.75;3511598;28;20044;-71
2021/05/03 02:05:26;;;;;;;4.57;4.18;;;;;;;13.09;63.65;98770.47;3511964;28;20036;-72
2021/05/03 02:07:07;;;;;;;5.03;4.25;;;;;;;13.09;63.89;98762.44;3510701;28;20036;-71
2021/05/03 02:08:49;;;;;;;6.18;4.60;;;;;;;13.05;64.06;98756.72;3511691;28;20411;-71
2021/05/03 02:10:31;;;;;;;6.25;5.18;;;;;;;13.06;64.09;98755.69;3511602;28;20568;-72
2021/05/03 02:12:11;;;;;;;;;;;;;;;13.15;63.31;98753.47;3512034;28;20047;-71
2021/05/03 02:13:52;;;;;;;6.07;4.10;;;;;;;13.09;63.63;98754.41;3511697;28;19912;-73
2021/05/03 02:15:33;;;;;;;4.57;4.15;;;;;;;13.10;63.92;98754.16;3510121;28;20047;-72
2021/05/03 02:17:28;;;;;;;4.93;4.40;;;;;;;13.14;63.67;98751.00;3509763;28;20062;-73
2021/05/03 02:19:10;;;;;;;5.10;4.45;;;;;;;13.13;63.44;98733.34;3511104;28;20048;-72
2021/05/03 02:20:50;;;;;;;4.67;4.27;;;;;;;13.14;63.73;98726.94;3511485;28;20054;-73
2021/05/03 02:22:31;;;;;;;8.60;4.85;;;;;;;13.14;63.82;98726.94;3511316;28;20043;-72
2021/05/03 02:24:12;;;;;;;6.47;4.93;;;;;;;13.14;63.92;98716.22;3511314;28;20040;-72
2021/05/03 02:25:53;;;;;;;5.40;4.90;;;;;;;13.16;64.06;98714.94;3511222;28;20036;-72
2021/05/03 02:27:33;;;;;;;6.47;4.82;;;;;;;13.18;64.15;98706.69;3510700;28;20036;-72
2021/05/03 02:29:14;;;;;;;6.15;4.75;;;;;;;13.20;64.20;98697.38;3511410;28;20093;-72
2021/05/03 02:30:55;;;;;;;6.65;5.25;;;;;;;13.22;63.87;98702.50;3510406;28;20040;-72
2021/05/03 02:32:39;;;;;;;6.20;5.10;;;;;;;13.21;64.10;98690.16;3511110;28;20076;-72
2021/05/03 02:34:19;;;;;;;6.13;5.53;;;;;;;13.18;64.02;98688.78;3511314;28;20511;-73
2021/05/03 02:36:01;;;;;;;4.97;4.47;;;;;;;13.14;64.29;98686.81;3511033;28;20036;-72
2021/05/03 02:37:44;;;;;;;5.28;4.80;;;;;;;13.12;64.37;98672.88;3511782;28;20070;-73
2021/05/03 02:39:24;;;;;;;5.70;4.95;;;;;;;13.08;64.29;98681.34;3511927;28;20036;-72
2021/05/03 02:41:05;;;;;;;5.45;4.90;;;;;;;13.05;64.66;98678.34;3512055;28;20388;-72
2021/05/03 02:42:50;;;;;;;5.93;5.15;;;;;;;13.05;64.84;98684.50;3511647;28;20036;-72
2021/05/03 02:44:30;;;;;;;5.88;5.10;;;;;;;13.02;64.41;98660.91;3509539;28;20040;-71
2021/05/03 02:46:11;;;;;;;5.53;5.03;;;;;;;13.07;64.32;98669.03;3510818;28;20040;-72
2021/05/03 02:47:52;;;;;;;4.78;4.38;;;;;;;13.13;64.30;98658.44;3511195;28;20075;-72
2021/05/03 02:49:37;;;;;;;4.82;4.32;;;;;;;13.16;64.53;98658.75;3510830;28;20384;-71
2021/05/03 02:51:17;;;;;;;5.50;4.97;;;;;;;13.17;64.39;98648.91;3509847;28;20042;-71
2021/05/03 02:52:58;;;;;;;5.63;5.13;;;;;;;13.14;64.33;98644.00;3510821;28;20040;-71
2021/05/03 02:54:39;;;;;;;5.65;5.00;;;;;;;13.11;64.57;98647.94;3510751;28;20075;-71
2021/05/03 02:56:20;;;;;;;5.80;5.20;;;;;;;13.05;64.70;98647.03;3510855;28;20499;-72
2021/05/03 02:58:00;;;;;;;5.28;4.78;;;;;;;13.04;64.87;98653.44;3511029;28;20467;-71
2021/05/03 02:59:41;;;;;;;5.22;4.72;;;;;;;13.05;64.72;98628.31;3510622;28;20044;-73
2021/05/03 03:01:22;;;;;;;5.97;5.40;;;;;;;13.09;64.79;98636.69;3510750;28;20127;-72
2021/05/03 03:03:03;;;;;;;5.22;4.72;;;;;;;13.13;64.86;98629.00;3510586;28;20420;-73
2021/05/03 03:04:44;;;;;;;9.00;5.40;;;;;;;13.18;64.52;98629.91;3511095;28;20040;-72
2021/05/03 03:06:25;;;;;;;6.80;4.70;;;;;;;13.19;64.43;98614.66;3510681;28;20422;-71
2021/05/03 03:08:06;;;;;;;6.93;5.45;;;;;;;13.22;64.47;98609.66;3509694;28;20040;-71
2021/05/03 03:09:46;;;;;;;6.22;5.30;;;;;;;13.25;64.60;98611.88;3492941;28;20418;-71
2021/05/03 03:11:28;;;;;;;4.85;4.45;;;;;;;13.30;64.50;98603.16;3507658;28;20036;-72
2021/05/03 03:13:09;;;;;;;7.68;4.78;;;;;;;13.30;64.47;98606.63;3510673;28;20042;-72
2021/05/03 03:14:50;;;;;;;6.43;5.20;;;;;;;13.30;64.68;98608.50;3510825;28;20040;-72
2021/05/03 03:16:31;;;;;;;5.82;5.30;;;;;;;13.30;64.59;98601.28;3509314;28;20453;-72
2021/05/03 03:18:12;;;;;;;7.38;5.55;;;;;;;13.30;64.33;98589.78;3510521;28;20460;-72
2021/05/03 03:19:52;;;;;;;5.35;4.85;;;;;;;13.30;64.67;98587.09;3510581;28;20043;-70
2021/05/03 03:21:33;;;;;;;6.53;5.00;;;;;;;13.28;64.72;98578.50;3495012;28;20449;-73
2021/05/03 03:23:14;;;;;;;5.57;5.07;;;;;;;13.25;64.83;98574.41;3504027;28;20602;-71
2021/05/03 03:24:54;;;;;;;6.57;5.88;;;;;;;13.28;64.68;98581.16;3510426;28;20068;-72
2021/05/03 03:26:35;;;;;;;5.82;5.22;;;;;;;13.30;64.57;98574.53;3510545;28;20039;-72
2021/05/03 03:28:16;;;;;;;7.47;6.63;;;;;;;13.27;64.62;98574.22;3510397;28;20048;-72
2021/05/03 03:29:57;;;;;;;6.10;5.50;;;;;;;13.26;64.91;98556.47;3510545;28;20402;-71
2021/05/03 03:31:37;;;;;;;6.57;5.97;;;;;;;13.24;64.84;98559.41;3510436;28;20039;-71
2021/05/03 03:33:18;;;;;;;8.38;5.82;;;;;;;13.22;64.79;98555.34;3510632;28;20040;-72
2021/05/03 03:34:59;;;;;;;5.60;5.10;;;;;;;13.19;65.02;98563.84;3510516;28;20079;-72
2021/05/03 03:36:40;;;;;;;6.80;6.18;;;;;;;13.17;65.13;98553.38;3510351;28;20035;-72
2021/05/03 03:38:20;;;;;;;5.88;5.38;;;;;;;13.16;64.88;98541.03;3510324;28;20071;-71
2021/05/03 03:40:03;;;;;;;6.68;5.97;;;;;;;13.18;65.01;98532.78;3509517;28;20496;-73
2021/05/03 03:41:44;;;;;;;6.30;5.60;;;;;;;13.26;64.74;98532.41;3510354;28;20048;-71
2021/05/03 03:43:25;;;;;;;6.97;6.30;;;;;;;13.23;64.88;98524.84;3510456;28;20105;-70
2021/05/03 03:45:07;;;;;;;7.13;6.43;;;;;;;13.20;65.17;98517.31;3510147;28;20406;-71
2021/05/03 03:46:50;;;;;;;8.23;6.93;;;;;;;13.22;65.17;98523.25;3495374;28;20043;-72
2021/05/03 03:48:31;;;;;;;7.60;6.90;;;;;;;13.20;65.33;98517.31;3507497;28;20040;-71
2021/05/03 03:50:12;;;;;;;8.70;6.78;;;;;;;13.16;65.44;98518.84;3509348;28;20043;-71
2021/05/03 03:51:52;;;;;;;7.57;6.88;;;;;;;13.17;65.72;98515.94;3509841;28;20574;-73
2021/05/03 03:53:33;;;;;;;7.35;6.63;;;;;;;13.16;65.80;98518.84;3509659;28;20052;-72
2021/05/03 03:55:14;;;;;;;7.80;7.00;;;;;;;13.13;65.91;98506.75;3509976;28;20973;-73
2021/05/03 03:56:54;;;;;;;7.38;6.78;;;;;;;13.17;65.78;98504.44;3510085;28;20048;-71
2021/05/03 03:58:35;;;;;;;9.40;6.95;;;;;;;13.20;65.58;98491.38;3510135;28;20086;-72
2021/05/03 04:00:16;;;;;;;8.02;7.15;;;;;;;13.29;65.66;98502.50;3510357;28;20067;-71
2021/05/03 04:01:57;;;;;;;7.03;6.43;;;;;;;13.27;65.42;98502.75;3510194;28;20047;-72
2021/05/03 04:03:49;;;;;;;8.65;7.20;;;;;;;13.28;65.60;98501.69;3510120;28;20040;-71
2021/05/03 04:06:02;;;;;;;8.00;7.25;;;;;;;13.22;65.44;98497.28;3510083;28;20409;-73
2021/05/03 04:22:57;;;;;;;8.30;7.50;;;;;;;13.29;65.54;98459.69;3510076;28;20044;-71
2021/05/03 04:24:27;;;;;;;8.98;8.07;;;;;;;13.27;65.75;98462.63;3509528;28;20168;-72
2021/05/03 04:26:07;;;;;;;9.52;8.05;;;;;;;13.25;65.91;98448.66;3510167;28;20101;-71
2021/05/03 04:27:50;;;;;;;8.45;7.65;;;;;;;13.26;66.08;98458.31;3509844;28;20433;-71
2021/05/03 04:29:31;;;;;;;9.88;8.88;;;;;;;13.25;66.11;98442.50;3510263;28;20130;-71
2021/05/03 04:31:12;;;;;;;8.65;7.75;;;;;;;13.28;66.02;98447.38;3510527;28;20051;-72
2021/05/03 04:32:53;;;;;;;9.07;8.15;;;;;;;13.28;65.90;98448.19;3510251;28;20570;-72
2021/05/03 04:34:33;;;;;;;8.75;7.88;;;;;;;13.30;66.19;98435.38;3509929;28;20571;-71
2021/05/03 04:36:14;;;;;;;9.50;8.50;;;;;;;13.30;66.08;98435.38;3510269;28;20043;-72
2021/05/03 04:37:55;;;;;;;9.27;8.38;;;;;;;13.31;66.16;98428.97;3509959;28;20460;-70
2021/05/03 04:39:36;;;;;;;8.85;8.07;;;;;;;13.33;66.12;98431.41;3510189;28;20048;-72
2021/05/03 04:41:17;;;;;;;9.00;7.95;;;;;;;13.33;66.26;98422.56;3509894;28;20028;-71
2021/05/03 04:42:57;;;;;;;8.90;8.05;;;;;;;13.34;66.08;98408.94;3510066;28;20040;-72
2021/05/03 04:44:38;;;;;;;8.88;7.85;;;;;;;13.39;65.99;98416.22;3509335;28;20040;-73
2021/05/03 04:46:19;;;;;;;10.40;7.95;;;;;;;13.35;65.98;98383.81;3509665;28;20502;-72
2021/05/03 04:47:59;;;;;;;9.23;8.32;;;;;;;13.43;66.10;98407.47;3509987;28;20047;-74
2021/05/03 04:49:40;;;;;;;9.20;8.20;;;;;;;13.42;65.98;98395.13;3508817;28;20123;-71
2021/05/03 04:51:21;;;;;;;9.40;8.50;;;;;;;13.39;66.11;98398.31;3509530;28;20036;-72
2021/05/03 04:53:02;;;;;;;9.98;8.70;;;;;;;13.40;66.34;98393.75;3509424;28;20095;-71
2021/05/03 04:54:42;;;;;;;9.80;8.90;;;;;;;13.36;66.29;98384.63;3509842;28;20517;-71
2021/05/03 04:56:23;;;;;;;10.00;9.02;;;;;;;13.40;66.36;98381.22;3510109;28;20445;-71
2021/05/03 04:58:04;;;;;;;9.52;8.55;;;;;;;13.43;66.10;98380.72;3509650;28;20124;-70
2021/05/03 04:59:45;;;;;;;11.13;9.35;;;;;;;13.43;66.20;98370.00;3509994;28;20169;-72
2021/05/03 05:01:25;;;;;;;9.88;8.93;;;;;;;13.46;66.23;98374.88;3509847;28;20528;-71
2021/05/03 05:03:09;;;;;;;10.02;8.90;;;;;;;13.47;66.27;98373.00;3509704;28;20118;-71
2021/05/03 05:04:50;;;;;;;14.68;11.95;;;;;;;13.41;66.32;98356.06;3509566;28;20596;-72
2021/05/03 05:06:30;;;;;;;10.45;9.35;;;;;;;13.41;66.45;98364.09;3509578;28;20482;-71
2021/05/03 05:08:11;;;;;;;8.98;8.13;;;;;;;13.40;66.50;98364.31;3511396;28;20047;-71
2021/05/03 05:09:52;;;;;;;10.10;8.15;;;;;;;13.40;66.34;98356.28;3512206;28;20032;-71
2021/05/03 05:11:32;;;;;;;9.82;8.80;;;;;;;13.41;66.30;98365.97;3512095;28;20507;-73
2021/05/03 05:13:13;;;;;;;9.95;8.60;;;;;;;13.42;66.42;98352.31;3512292;28;20557;-72
2021/05/03 05:14:54;;;;;;;9.55;8.65;;;;;;;13.44;66.59;98355.56;3511285;28;20683;-73
2021/05/03 05:16:34;;;;;;;8.70;7.90;;;;;;;13.48;66.55;98375.44;3508279;28;20077;-72
2021/05/03 05:18:15;;;;;;;9.43;8.45;;;;;;;13.50;66.65;98348.41;3508656;28;20415;-71
2021/05/03 05:19:56;;;;;;;8.70;7.63;;;;;;;13.47;66.26;98360.41;3512250;28;20559;-73
2021/05/03 05:21:37;;;;;;;8.70;7.70;;;;;;;13.53;66.28;98342.59;3512336;28;20491;-72
2021/05/03 05:23:18;;;;;;;8.50;7.70;;;;;;;13.55;66.46;98323.59;3512392;28;20417;-73
2021/05/03 05:25:01;;;;;;;8.18;7.38;;;;;;;13.58;66.50;98337.31;3497265;28;20036;-73
2021/05/03 05:26:43;;;;;;;8.43;7.55;;;;;;;13.61;66.49;98330.66;3509508;28;20052;-73
2021/05/03 05:28:24;;;;;;;8.82;7.75;;;;;;;13.63;66.41;98320.47;3512308;28;20457;-72
2021/05/03 05:30:06;;;;;;;8.07;7.28;;;;;;;13.61;66.61;98322.63;3511539;28;20494;-71
2021/05/03 05:31:46;;;;;;;8.68;7.85;;;;;;;13.59;66.84;98316.69;3512393;28;20044;-73
2021/05/03 05:33:27;;;;;;;8.95;7.80;;;;;;;13.57;66.95;98316.91;3511163;28;20048;-73
2021/05/03 05:35:09;;;;;;;8.50;7.50;;;;;;;13.57;67.12;98305.41;3510865;28;20181;-71
2021/05/03 05:36:50;;;;;;;9.48;8.07;;;;;;;13.52;67.33;98288.22;3511743;28;20430;-73
2021/05/03 05:38:30;;;;;;;12.15;7.95;;;;;;;13.55;67.46;98276.19;3510835;28;20068;-73
2021/05/03 05:40:11;;;;;;;7.50;6.80;;;;;;;13.54;67.42;98285.31;3508166;28;20051;-72
2021/05/03 05:41:52;;;;;;;8.85;6.70;;;;;;;13.55;67.62;98281.56;3511943;28;20126;-73
2021/05/03 05:43:32;;;;;;;6.75;6.15;;;;;;;13.55;67.47;98286.09;3511063;28;20050;-72
2021/05/03 05:45:14;;;;;;;6.88;6.13;;;;;;;13.52;67.71;98282.84;3511825;28;20126;-72
2021/05/03 05:46:54;;;;;;;7.03;6.18;;;;;;;13.54;67.65;98269.25;3512005;28;20075;-71
2021/05/03 05:48:36;;;;;;;8.18;6.30;;;;;;;13.61;67.61;98280.59;3511895;28;20452;-72
2021/05/03 05:50:17;;;;;;;6.57;5.97;;;;;;;13.66;67.20;98271.81;3511497;28;20035;-71
2021/05/03 05:51:57;;;;;;;10.88;6.22;;;;;;;13.66;67.31;98255.75;3511488;28;20048;-72
2021/05/03 05:53:38;;;;;;;7.28;6.57;;;;;;;13.73;67.38;98261.69;3511722;28;20089;-72
2021/05/03 05:55:20;;;;;;;;;;;;;;;13.82;66.66;98249.50;3512809;28;20046;-72
2021/05/03 05:57:01;;;;;;;5.05;4.55;;;;;;;13.76;67.05;98245.16;3512289;28;20382;-72
2021/05/03 05:58:42;;;;;;;7.25;4.90;;;;;;;13.77;67.29;98238.72;3511894;28;20044;-72
2021/05/03 06:00:22;;;;;;;5.93;5.38;;;;;;;13.80;67.40;98246.25;3508404;28;20044;-71
2021/05/03 06:02:03;;;;;;;7.10;4.82;;;;;;;13.82;67.47;98254.03;3511729;28;20474;-72
2021/05/03 06:03:44;;;;;;;6.75;5.40;;;;;;;13.79;67.62;98239.28;3512290;28;20215;-71
2021/05/03 06:05:25;;;;;;;5.40;4.90;;;;;;;13.77;67.54;98238.72;3512950;28;20624;-72
2021/05/03 06:07:05;;;;;;;5.03;4.63;;;;;;;13.76;67.45;98239.81;3512274;28;20075;-73
2021/05/03 06:08:46;;;;;;;5.80;5.30;;;;;;;13.75;67.57;98230.94;3511678;28;20039;-73
2021/05/03 06:10:27;;;;;;;6.20;5.30;;;;;;;13.76;67.72;98242.47;3512268;28;20036;-74
2021/05/03 06:12:08;;;;;;;6.70;5.28;;;;;;;13.71;68.11;98229.03;3512245;28;20040;-71
2021/05/03 06:13:49;;;;;;;5.30;4.88;;;;;;;13.68;68.38;98229.50;3512237;28;20052;-72
2021/05/03 06:15:30;;;;;;;5.82;5.32;;;;;;;13.66;68.09;98237.00;3510994;28;20068;-74
2021/05/03 06:17:11;;;;;;;6.95;4.68;;;;;;;13.66;68.36;98234.31;3511849;28;20123;-72
2021/05/03 06:19:05;;;;;;;5.35;4.85;;;;;;;13.62;68.64;98217.94;3511212;28;20414;-74
2021/05/03 06:20:46;;;;;;;5.13;4.70;;;;;;;13.73;68.63;98227.72;3511894;28;20066;-71
2021/05/03 06:22:28;;;;;;;6.68;4.85;;;;;;;13.75;68.69;98222.09;3511977;28;20032;-73
2021/05/03 06:24:09;;;;;;;;;;;;;;;13.84;68.26;98220.59;3512074;28;20116;-71
2021/05/03 06:25:50;;;;;;;5.85;4.57;;;;;;;13.74;68.65;98215.13;3511916;28;20008;-72
2021/05/03 06:27:30;;;;;;;6.30;4.95;;;;;;;13.69;68.89;98218.56;3511308;28;20437;-73
2021/05/03 06:29:11;;;;;;;5.80;4.60;;;;;;;13.66;68.90;98203.00;3511449;28;20119;-72
2021/05/03 06:30:56;;;;;;;5.05;4.55;;;;;;;13.70;69.22;98214.00;3511515;28;20522;-71
2021/05/03 06:32:37;;;;;;;5.63;5.13;;;;;;;13.73;69.24;98208.16;3511275;28;20044;-71
2021/05/03 06:34:18;;;;;;;5.18;4.72;;;;;;;13.72;69.21;98207.34;3511703;28;20063;-71
2021/05/03 06:35:59;;;;;;;6.75;4.95;;;;;;;13.72;69.57;98210.03;3509895;28;20123;-72
2021/05/03 06:37:39;;;;;;;5.55;5.05;;;;;;;13.75;69.63;98195.31;3507301;28;20040;-72
2021/05/03 06:39:20;;;;;;;5.45;5.05;;;;;;;13.76;69.63;98196.97;3507059;28;20040;-72
2021/05/03 06:41:01;;;;;;;5.25;4.75;;;;;;;13.81;69.65;98199.69;3510756;28;20595;-72
2021/05/03 06:42:41;;;;;;;5.38;4.88;;;;;;;13.81;69.63;98205.03;3510259;28;20067;-71
2021/05/03 06:44:22;;;;;;;5.80;5.00;;;;;;;13.75;69.77;98189.97;3510793;28;20093;-72
2021/05/03 06:46:03;;;;;;;5.72;5.03;;;;;;;13.83;69.80;98192.19;3510847;28;20043;-72
2021/05/03 06:47:48;;;;;;;10.77;5.57;;;;;;;13.83;69.75;98188.69;3511060;28;20044;-73
2021/05/03 06:49:29;;;;;;;9.07;5.68;;;;;;;13.81;69.89;98191.66;3509920;28;20526;-72
2021/05/03 06:51:10;;;;;;;5.68;4.97;;;;;;;13.82;69.73;98193.25;3510292;28;20036;-73
2021/05/03 06:52:51;;;;;;;6.47;5.88;;;;;;;13.90;69.69;98195.47;3510748;28;20078;-72
2021/05/03 06:54:32;;;;;;;;;;;;;;;14.03;69.00;98185.41;3511185;28;20448;-71
2021/05/03 06:56:13;;;;;;;6.22;4.95;;;;;;;13.95;69.32;98184.81;3511168;28;19920;-72
2021/05/03 06:57:54;;;;;;;6.68;5.38;;;;;;;13.90;69.68;98179.41;3518667;28;20043;-72
2021/05/03 06:59:35;;;;;;;6.05;5.53;;;;;;;13.96;69.58;98175.72;3528708;28;20028;-73
2021/05/03 07:01:16;;;;;;;6.93;6.03;;;;;;;13.93;69.55;98160.16;3528524;28;20141;-72
2021/05/03 07:02:57;;;;;;;8.93;5.78;;;;;;;14.00;69.88;98164.50;3521132;28;20126;-72
2021/05/03 07:04:38;;;;;;;7.63;5.88;;;;;;;14.04;69.92;98165.59;3510294;28;20048;-71
2021/05/03 07:06:18;;;;;;;7.63;6.00;;;;;;;14.08;69.84;98169.41;3507159;28;20534;-72
2021/05/03 07:07:59;;;;;;;6.13;5.53;;;;;;;14.12;69.76;98165.13;3510581;28;20048;-72
2021/05/03 07:09:42;;;;;;;7.78;6.57;;;;;;;14.13;69.84;98158.72;3510792;28;20082;-71
2021/05/03 07:11:28;;;;;;;8.05;7.05;;;;;;;14.12;69.91;98167.81;3510575;28;20036;-71
2021/05/03 07:13:08;;;;;;;11.30;7.07;;;;;;;14.12;70.11;98162.44;3509483;28;20048;-72
2021/05/03 07:14:50;;;;;;;9.48;5.68;;;;;;;14.13;70.21;98158.72;3510383;28;20040;-72
2021/05/03 07:16:31;;;;;;;10.10;7.68;;;;;;;14.13;70.15;98139.97;3510469;28;20047;-71
2021/05/03 07:18:11;;;;;;;10.73;7.18;;;;;;;14.13;70.13;98142.66;3510799;28;20052;-71
2021/05/03 07:19:52;;;;;;;8.85;7.05;;;;;;;14.15;70.46;98143.22;3510527;28;20075;-73
2021/05/03 07:21:35;;;;;;;12.15;7.13;;;;;;;14.15;70.67;98129.81;3510705;28;20040;-73
2021/05/03 07:23:16;;;;;;;10.50;7.53;;;;;;;14.20;70.25;98132.53;3510407;28;20176;-71
2021/05/03 07:24:57;;;;;;;10.50;8.00;;;;;;;14.25;70.32;98145.13;3510417;28;20052;-72
2021/05/03 07:26:40;;;;;;;8.60;6.97;;;;;;;14.30;70.44;98132.59;3510405;28;20050;-73
2021/05/03 07:28:21;;;;;;;8.18;7.38;;;;;;;14.34;70.34;98122.97;3510714;28;20050;-72
2021/05/03 07:30:03;;;;;;;9.32;7.38;;;;;;;14.40;70.22;98134.53;3510124;28;20044;-72
2021/05/03 07:31:44;;;;;;;7.22;6.45;;;;;;;14.44;69.94;98126.78;3510004;28;20139;-72
2021/05/03 07:33:26;;;;;;;8.55;7.68;;;;;;;14.49;70.02;98124.16;3510383;28;20425;-73
2021/05/03 07:35:09;;;;;;;11.18;7.85;;;;;;;14.59;70.02;98122.38;3510039;28;20129;-72
2021/05/03 07:36:50;;;;;;;8.80;7.18;;;;;;;14.65;69.92;98127.75;3510471;28;20055;-72
2021/05/03 07:38:31;;;;;;;9.90;7.10;;;;;;;14.68;69.83;98111.16;3509256;28;20039;-73
2021/05/03 07:40:12;;;;;;;7.90;7.07;;;;;;;14.72;69.85;98113.06;3510113;28;20123;-72
2021/05/03 07:41:53;;;;;;;9.23;6.72;;;;;;;14.75;69.85;98101.78;3510324;28;20043;-72
2021/05/03 07:43:35;;;;;;;8.77;7.70;;;;;;;14.74;69.94;98099.38;3510379;28;20047;-73
2021/05/03 07:45:17;;;;;;;8.35;7.38;;;;;;;14.76;70.12;98103.41;3510214;28;20044;-73
2021/05/03 07:46:58;;;;;;;9.38;7.45;;;;;;;14.73;70.21;98093.19;3510448;28;20043;-73
2021/05/03 07:48:39;;;;;;;12.02;9.45;;;;;;;14.73;70.33;98090.53;3510163;28;20416;-71
2021/05/03 07:50:19;;;;;;;11.30;8.07;;;;;;;14.72;70.33;98086.22;3509316;28;20418;-72
2021/05/03 07:52:00;;;;;;;10.27;8.63;;;;;;;14.74;70.45;98094.00;3509726;28;20561;-73
2021/05/03 07:53:41;;;;;;;12.65;8.88;;;;;;;14.74;70.66;98097.50;3510276;28;20050;-73
2021/05/03 07:55:21;;;;;;;10.20;8.80;;;;;;;14.76;70.64;98087.31;3509369;28;20081;-73
2021/05/03 07:57:02;;;;;;;10.63;9.20;;;;;;;14.76;70.73;98086.50;3509100;28;20495;-73
2021/05/03 07:58:44;;;;;;;10.75;9.30;;;;;;;14.76;70.62;98073.91;3510243;28;20059;-72
2021/05/03 08:00:25;;;;;;;12.63;8.38;;;;;;;14.80;70.61;98072.31;3510298;28;20084;-72
2021/05/03 08:02:06;;;;;;;14.70;8.50;;;;;;;14.86;70.56;98075.03;3510108;28;20094;-72
2021/05/03 08:03:46;;;;;;;12.70;9.73;;;;;;;14.92;70.53;98072.13;3510208;28;20035;-72
2021/05/03 08:05:27;;;;;;;11.98;8.88;;;;;;;14.93;70.72;98070.22;3510041;28;20040;-71
2021/05/03 08:07:08;;;;;;;11.55;8.90;;;;;;;14.92;70.64;98068.59;3509770;28;20521;-72
2021/05/03 08:08:49;;;;;;;11.77;9.40;;;;;;;14.92;71.04;98063.22;3510010;28;20044;-72
2021/05/03 08:10:30;;;;;;;10.80;9.45;;;;;;;14.90;71.04;98065.41;3510005;28;20418;-73
2021/05/03 08:12:11;;;;;;;9.30;8.32;;;;;;;14.91;71.05;98062.44;3510271;28;20040;-72